sensor_id;sensor_type;location;lat;lon;timestamp;P1;durP1;ratioP1;P2;durP2;ratioP2
2728;SDS011;1372;47.956;7.830;2023-01-19T00:00:57;6.60;;;4.87;;
2728;SDS011;1372;47.956;7.830;2023-01-19T00:03:26;4.50;;;3.90;;
2728;SDS011;1372;47.956;7.830;2023-01-19T00:05:54;6.33;;;4.90;;
2728;SDS011;1372;47.956;7.830;2023-01-19T00:08:23;6.67;;;4.83;;
2728;SDS011;1372;47.956;7.830;2023-01-19T00:10:52;6.00;;;4.80;;
2728;SDS011;1372;47.956;7.830;2023-01-19T00:13:22;4.67;;;4.17;;
2728;SDS011;1372;47.956;7.830;2023-01-19T00:15:51;7.07;;;4.20;;
2728;SDS011;1372;47.956;7.830;2023-01-19T00:18:19;6.70;;;4.50;;
2728;SDS011;1372;47.956;7.830;2023-01-19T00:20:48;5.17;;;4.63;;
2728;SDS011;1372;47.956;7.830;2023-01-19T00:23:17;6.40;;;4.50;;
2728;SDS011;1372;47.956;7.830;2023-01-19T00:25:46;6.37;;;4.40;;
2728;SDS011;1372;47.956;7.830;2023-01-19T00:28:17;9.07;;;4.60;;
2728;SDS011;1372;47.956;7.830;2023-01-19T00:30:48;6.77;;;4.43;;
2728;SDS011;1372;47.956;7.830;2023-01-19T00:33:18;8.20;;;4.60;;
2728;SDS011;1372;47.956;7.830;2023-01-19T00:41:10;5.40;;;4.30;;
2728;SDS011;1372;47.956;7.830;2023-01-19T00:46:43;6.17;;;4.20;;
2728;SDS011;1372;47.956;7.830;2023-01-19T00:49:14;5.70;;;4.20;;
2728;SDS011;1372;47.956;7.830;2023-01-19T00:51:45;5.27;;;4.50;;
2728;SDS011;1372;47.956;7.830;2023-01-19T00:54:14;5.20;;;3.80;;
2728;SDS011;1372;47.956;7.830;2023-01-19T00:56:44;6.00;;;4.50;;
2728;SDS011;1372;47.956;7.830;2023-01-19T00:59:13;6.13;;;3.87;;
2728;SDS011;1372;47.956;7.830;2023-01-19T01:01:43;5.50;;;3.97;;
2728;SDS011;1372;47.956;7.830;2023-01-19T01:04:12;4.20;;;3.60;;
2728;SDS011;1372;47.956;7.830;2023-01-19T01:06:40;3.50;;;2.83;;
2728;SDS011;1372;47.956;7.830;2023-01-19T01:09:09;6.37;;;3.30;;
2728;SDS011;1372;47.956;7.830;2023-01-19T01:11:40;5.53;;;4.53;;
2728;SDS011;1372;47.956;7.830;2023-01-19T01:14:10;4.03;;;3.50;;
2728;SDS011;1372;47.956;7.830;2023-01-19T01:16:40;4.67;;;4.13;;
2728;SDS011;1372;47.956;7.830;2023-01-19T01:19:10;4.40;;;3.80;;
2728;SDS011;1372;47.956;7.830;2023-01-19T01:21:38;5.20;;;4.00;;
2728;SDS011;1372;47.956;7.830;2023-01-19T01:24:09;3.97;;;3.50;;
2728;SDS011;1372;47.956;7.830;2023-01-19T01:26:38;4.13;;;3.73;;
2728;SDS011;1372;47.956;7.830;2023-01-19T01:29:07;4.80;;;3.67;;
2728;SDS011;1372;47.956;7.830;2023-01-19T01:31:35;5.90;;;3.93;;
2728;SDS011;1372;47.956;7.830;2023-01-19T01:34:04;3.80;;;3.43;;
2728;SDS011;1372;47.956;7.830;2023-01-19T01:36:34;5.47;;;3.70;;
2728;SDS011;1372;47.956;7.830;2023-01-19T01:39:03;6.90;;;4.30;;
2728;SDS011;1372;47.956;7.830;2023-01-19T01:41:32;4.90;;;4.33;;
2728;SDS011;1372;47.956;7.830;2023-01-19T01:44:01;4.57;;;4.07;;
2728;SDS011;1372;47.956;7.830;2023-01-19T01:46:33;5.77;;;4.07;;
2728;SDS011;1372;47.956;7.830;2023-01-19T01:49:03;4.27;;;3.83;;
2728;SDS011;1372;47.956;7.830;2023-01-19T01:51:37;4.30;;;3.50;;
2728;SDS011;1372;47.956;7.830;2023-01-19T01:54:14;3.37;;;3.03;;
2728;SDS011;1372;47.956;7.830;2023-01-19T01:56:49;6.80;;;3.93;;
2728;SDS011;1372;47.956;7.830;2023-01-19T01:59:24;5.10;;;3.47;;
2728;SDS011;1372;47.956;7.830;2023-01-19T02:02:00;4.97;;;3.50;;
2728;SDS011;1372;47.956;7.830;2023-01-19T02:04:52;5.67;;;3.80;;
2728;SDS011;1372;47.956;7.830;2023-01-19T02:07:28;6.70;;;4.07;;
2728;SDS011;1372;47.956;7.830;2023-01-19T02:10:24;5.37;;;3.60;;
2728;SDS011;1372;47.956;7.830;2023-01-19T02:13:10;5.07;;;3.60;;
2728;SDS011;1372;47.956;7.830;2023-01-19T02:16:00;6.77;;;4.73;;
2728;SDS011;1372;47.956;7.830;2023-01-19T02:18:33;4.27;;;3.87;;
2728;SDS011;1372;47.956;7.830;2023-01-19T02:21:05;6.27;;;4.20;;
2728;SDS011;1372;47.956;7.830;2023-01-19T02:23:41;5.27;;;3.77;;
2728;SDS011;1372;47.956;7.830;2023-01-19T02:26:13;5.87;;;4.40;;
2728;SDS011;1372;47.956;7.830;2023-01-19T02:28:45;4.10;;;3.70;;
2728;SDS011;1372;47.956;7.830;2023-01-19T02:31:17;5.07;;;4.03;;
2728;SDS011;1372;47.956;7.830;2023-01-19T02:33:46;4.27;;;3.37;;
2728;SDS011;1372;47.956;7.830;2023-01-19T02:36:15;4.50;;;4.10;;
2728;SDS011;1372;47.956;7.830;2023-01-19T02:38:51;5.00;;;4.00;;
2728;SDS011;1372;47.956;7.830;2023-01-19T02:41:23;4.37;;;3.33;;
2728;SDS011;1372;47.956;7.830;2023-01-19T02:43:56;8.33;;;3.70;;
2728;SDS011;1372;47.956;7.830;2023-01-19T02:46:25;5.97;;;4.07;;
2728;SDS011;1372;47.956;7.830;2023-01-19T02:48:57;3.67;;;3.37;;
2728;SDS011;1372;47.956;7.830;2023-01-19T02:51:26;4.17;;;3.73;;
2728;SDS011;1372;47.956;7.830;2023-01-19T02:54:04;3.70;;;3.30;;
2728;SDS011;1372;47.956;7.830;2023-01-19T02:57:01;3.53;;;3.23;;
2728;SDS011;1372;47.956;7.830;2023-01-19T02:59:43;5.07;;;3.50;;
2728;SDS011;1372;47.956;7.830;2023-01-19T03:02:29;4.67;;;3.67;;
2728;SDS011;1372;47.956;7.830;2023-01-19T03:05:07;5.70;;;3.57;;
2728;SDS011;1372;47.956;7.830;2023-01-19T03:07:51;6.60;;;3.20;;
2728;SDS011;1372;47.956;7.830;2023-01-19T03:10:30;4.10;;;3.70;;
2728;SDS011;1372;47.956;7.830;2023-01-19T03:13:13;4.33;;;3.20;;
2728;SDS011;1372;47.956;7.830;2023-01-19T03:15:47;6.40;;;3.43;;
2728;SDS011;1372;47.956;7.830;2023-01-19T03:18:22;3.57;;;3.27;;
2728;SDS011;1372;47.956;7.830;2023-01-19T03:20:55;3.73;;;3.40;;
2728;SDS011;1372;47.956;7.830;2023-01-19T03:23:28;8.60;;;3.50;;
2728;SDS011;1372;47.956;7.830;2023-01-19T03:26:00;3.23;;;2.93;;
2728;SDS011;1372;47.956;7.830;2023-01-19T03:28:31;4.07;;;3.50;;
2728;SDS011;1372;47.956;7.830;2023-01-19T03:31:04;3.73;;;2.87;;
2728;SDS011;1372;47.956;7.830;2023-01-19T03:33:39;4.60;;;3.07;;
2728;SDS011;1372;47.956;7.830;2023-01-19T03:36:14;2.80;;;2.37;;
2728;SDS011;1372;47.956;7.830;2023-01-19T03:38:47;4.10;;;2.67;;
2728;SDS011;1372;47.956;7.830;2023-01-19T03:41:19;4.30;;;3.27;;
2728;SDS011;1372;47.956;7.830;2023-01-19T03:43:50;3.67;;;2.90;;
2728;SDS011;1372;47.956;7.830;2023-01-19T03:46:22;3.00;;;2.70;;
2728;SDS011;1372;47.956;7.830;2023-01-19T03:48:52;3.47;;;2.83;;
2728;SDS011;1372;47.956;7.830;2023-01-19T03:51:22;3.97;;;3.00;;
2728;SDS011;1372;47.956;7.830;2023-01-19T03:53:50;3.57;;;2.90;;
2728;SDS011;1372;47.956;7.830;2023-01-19T03:56:21;3.27;;;2.97;;
2728;SDS011;1372;47.956;7.830;2023-01-19T03:58:51;2.93;;;2.53;;
2728;SDS011;1372;47.956;7.830;2023-01-19T04:01:22;3.43;;;2.50;;
2728;SDS011;1372;47.956;7.830;2023-01-19T04:03:51;3.10;;;2.80;;
2728;SDS011;1372;47.956;7.830;2023-01-19T04:06:20;4.00;;;2.97;;
2728;SDS011;1372;47.956;7.830;2023-01-19T04:08:49;2.77;;;2.50;;
2728;SDS011;1372;47.956;7.830;2023-01-19T04:11:20;3.33;;;2.70;;
2728;SDS011;1372;47.956;7.830;2023-01-19T04:13:49;3.70;;;2.53;;
2728;SDS011;1372;47.956;7.830;2023-01-19T04:16:18;2.63;;;2.43;;
2728;SDS011;1372;47.956;7.830;2023-01-19T04:18:47;2.43;;;2.23;;
2728;SDS011;1372;47.956;7.830;2023-01-19T04:21:18;4.10;;;2.77;;
2728;SDS011;1372;47.956;7.830;2023-01-19T04:23:49;2.30;;;2.10;;
2728;SDS011;1372;47.956;7.830;2023-01-19T04:26:18;5.93;;;2.60;;
2728;SDS011;1372;47.956;7.830;2023-01-19T04:28:50;2.87;;;2.60;;
2728;SDS011;1372;47.956;7.830;2023-01-19T04:31:20;3.00;;;2.67;;
2728;SDS011;1372;47.956;7.830;2023-01-19T04:33:48;2.57;;;2.37;;
2728;SDS011;1372;47.956;7.830;2023-01-19T04:36:17;3.57;;;2.87;;
2728;SDS011;1372;47.956;7.830;2023-01-19T04:38:46;3.00;;;2.67;;
2728;SDS011;1372;47.956;7.830;2023-01-19T04:41:15;3.63;;;2.70;;
2728;SDS011;1372;47.956;7.830;2023-01-19T04:43:45;2.67;;;2.47;;
2728;SDS011;1372;47.956;7.830;2023-01-19T04:46:28;3.47;;;2.53;;
2728;SDS011;1372;47.956;7.830;2023-01-19T04:48:57;2.80;;;2.27;;
2728;SDS011;1372;47.956;7.830;2023-01-19T04:51:25;3.37;;;2.57;;
2728;SDS011;1372;47.956;7.830;2023-01-19T04:53:55;4.60;;;3.07;;
2728;SDS011;1372;47.956;7.830;2023-01-19T04:56:23;3.77;;;2.50;;
2728;SDS011;1372;47.956;7.830;2023-01-19T04:58:54;2.90;;;2.70;;
2728;SDS011;1372;47.956;7.830;2023-01-19T05:01:22;3.30;;;3.00;;
2728;SDS011;1372;47.956;7.830;2023-01-19T05:03:53;3.97;;;3.23;;
2728;SDS011;1372;47.956;7.830;2023-01-19T05:06:25;3.53;;;3.23;;
2728;SDS011;1372;47.956;7.830;2023-01-19T05:08:53;5.53;;;2.80;;
2728;SDS011;1372;47.956;7.830;2023-01-19T05:11:22;6.00;;;4.70;;
2728;SDS011;1372;47.956;7.830;2023-01-19T05:13:51;7.40;;;3.80;;
2728;SDS011;1372;47.956;7.830;2023-01-19T05:16:21;4.80;;;3.37;;
2728;SDS011;1372;47.956;7.830;2023-01-19T05:18:49;3.70;;;2.80;;
2728;SDS011;1372;47.956;7.830;2023-01-19T05:21:20;5.50;;;3.40;;
2728;SDS011;1372;47.956;7.830;2023-01-19T05:23:49;2.60;;;2.40;;
2728;SDS011;1372;47.956;7.830;2023-01-19T05:26:17;4.63;;;2.90;;
2728;SDS011;1372;47.956;7.830;2023-01-19T05:28:48;5.90;;;4.33;;
2728;SDS011;1372;47.956;7.830;2023-01-19T05:31:16;5.77;;;5.20;;
2728;SDS011;1372;47.956;7.830;2023-01-19T05:33:47;8.73;;;7.83;;
2728;SDS011;1372;47.956;7.830;2023-01-19T05:36:15;7.23;;;5.50;;
2728;SDS011;1372;47.956;7.830;2023-01-19T05:38:44;10.83;;;7.73;;
2728;SDS011;1372;47.956;7.830;2023-01-19T05:41:12;11.40;;;6.83;;
2728;SDS011;1372;47.956;7.830;2023-01-19T05:43:41;9.90;;;8.90;;
2728;SDS011;1372;47.956;7.830;2023-01-19T05:46:10;10.30;;;6.20;;
2728;SDS011;1372;47.956;7.830;2023-01-19T05:48:39;4.43;;;4.03;;
2728;SDS011;1372;47.956;7.830;2023-01-19T05:51:08;6.23;;;5.07;;
2728;SDS011;1372;47.956;7.830;2023-01-19T05:53:37;5.17;;;4.53;;
2728;SDS011;1372;47.956;7.830;2023-01-19T05:56:06;5.30;;;4.80;;
2728;SDS011;1372;47.956;7.830;2023-01-19T05:58:36;8.30;;;5.27;;
2728;SDS011;1372;47.956;7.830;2023-01-19T06:01:08;6.00;;;5.00;;
2728;SDS011;1372;47.956;7.830;2023-01-19T06:03:41;3.97;;;3.33;;
2728;SDS011;1372;47.956;7.830;2023-01-19T06:06:13;3.90;;;3.50;;
2728;SDS011;1372;47.956;7.830;2023-01-19T06:08:44;5.73;;;3.50;;
2728;SDS011;1372;47.956;7.830;2023-01-19T06:11:15;9.73;;;7.80;;
2728;SDS011;1372;47.956;7.830;2023-01-19T06:13:44;8.93;;;6.90;;
2728;SDS011;1372;47.956;7.830;2023-01-19T06:16:16;37.77;;;22.40;;
2728;SDS011;1372;47.956;7.830;2023-01-19T06:18:45;45.60;;;25.10;;
2728;SDS011;1372;47.956;7.830;2023-01-19T06:21:15;29.63;;;19.90;;
2728;SDS011;1372;47.956;7.830;2023-01-19T06:23:43;13.83;;;11.03;;
2728;SDS011;1372;47.956;7.830;2023-01-19T06:26:12;6.47;;;5.10;;
2728;SDS011;1372;47.956;7.830;2023-01-19T06:28:40;6.37;;;3.90;;
2728;SDS011;1372;47.956;7.830;2023-01-19T06:31:09;6.03;;;3.27;;
2728;SDS011;1372;47.956;7.830;2023-01-19T06:33:40;6.03;;;4.07;;
2728;SDS011;1372;47.956;7.830;2023-01-19T06:36:09;5.07;;;4.57;;
2728;SDS011;1372;47.956;7.830;2023-01-19T06:38:39;3.50;;;3.20;;
2728;SDS011;1372;47.956;7.830;2023-01-19T06:41:07;7.50;;;4.80;;
2728;SDS011;1372;47.956;7.830;2023-01-19T06:43:36;6.03;;;3.60;;
2728;SDS011;1372;47.956;7.830;2023-01-19T06:46:04;5.93;;;3.90;;
2728;SDS011;1372;47.956;7.830;2023-01-19T06:48:35;5.47;;;4.10;;
2728;SDS011;1372;47.956;7.830;2023-01-19T06:51:04;4.30;;;3.90;;
2728;SDS011;1372;47.956;7.830;2023-01-19T06:53:35;4.30;;;3.77;;
2728;SDS011;1372;47.956;7.830;2023-01-19T06:56:07;5.07;;;3.90;;
2728;SDS011;1372;47.956;7.830;2023-01-19T06:58:36;8.57;;;6.97;;
2728;SDS011;1372;47.956;7.830;2023-01-19T07:01:05;9.27;;;6.37;;
2728;SDS011;1372;47.956;7.830;2023-01-19T07:03:35;5.53;;;4.70;;
2728;SDS011;1372;47.956;7.830;2023-01-19T07:06:04;8.00;;;4.67;;
2728;SDS011;1372;47.956;7.830;2023-01-19T07:08:33;7.10;;;4.87;;
2728;SDS011;1372;47.956;7.830;2023-01-19T07:11:03;8.53;;;5.90;;
2728;SDS011;1372;47.956;7.830;2023-01-19T07:13:48;6.47;;;5.77;;
2728;SDS011;1372;47.956;7.830;2023-01-19T07:16:21;6.77;;;5.73;;
2728;SDS011;1372;47.956;7.830;2023-01-19T07:18:50;8.53;;;7.53;;
2728;SDS011;1372;47.956;7.830;2023-01-19T07:21:18;15.97;;;9.10;;
2728;SDS011;1372;47.956;7.830;2023-01-19T07:23:48;12.97;;;8.03;;
2728;SDS011;1372;47.956;7.830;2023-01-19T07:26:19;10.33;;;7.13;;
2728;SDS011;1372;47.956;7.830;2023-01-19T07:28:50;14.17;;;8.23;;
2728;SDS011;1372;47.956;7.830;2023-01-19T07:31:19;14.00;;;9.13;;
2728;SDS011;1372;47.956;7.830;2023-01-19T07:33:48;110.27;;;50.60;;
2728;SDS011;1372;47.956;7.830;2023-01-19T07:36:17;136.63;;;58.50;;
2728;SDS011;1372;47.956;7.830;2023-01-19T07:38:45;48.17;;;27.10;;
2728;SDS011;1372;47.956;7.830;2023-01-19T07:41:14;21.73;;;13.40;;
2728;SDS011;1372;47.956;7.830;2023-01-19T07:43:44;37.00;;;20.67;;
2728;SDS011;1372;47.956;7.830;2023-01-19T07:46:13;27.33;;;14.77;;
2728;SDS011;1372;47.956;7.830;2023-01-19T07:48:41;29.30;;;18.50;;
2728;SDS011;1372;47.956;7.830;2023-01-19T07:51:13;39.13;;;24.60;;
2728;SDS011;1372;47.956;7.830;2023-01-19T07:53:44;24.77;;;16.60;;
2728;SDS011;1372;47.956;7.830;2023-01-19T07:56:13;22.13;;;15.20;;
2728;SDS011;1372;47.956;7.830;2023-01-19T07:58:42;38.33;;;22.83;;
2728;SDS011;1372;47.956;7.830;2023-01-19T08:01:12;22.47;;;14.50;;
2728;SDS011;1372;47.956;7.830;2023-01-19T08:03:41;9.30;;;8.40;;
2728;SDS011;1372;47.956;7.830;2023-01-19T08:06:10;7.57;;;6.83;;
2728;SDS011;1372;47.956;7.830;2023-01-19T08:08:47;6.07;;;5.37;;
2728;SDS011;1372;47.956;7.830;2023-01-19T08:11:18;8.07;;;5.33;;
2728;SDS011;1372;47.956;7.830;2023-01-19T08:13:50;9.17;;;6.77;;
2728;SDS011;1372;47.956;7.830;2023-01-19T08:16:21;8.83;;;7.23;;
2728;SDS011;1372;47.956;7.830;2023-01-19T08:18:56;9.97;;;7.10;;
2728;SDS011;1372;47.956;7.830;2023-01-19T08:21:28;9.70;;;7.10;;
2728;SDS011;1372;47.956;7.830;2023-01-19T08:24:01;20.27;;;10.57;;
2728;SDS011;1372;47.956;7.830;2023-01-19T08:26:31;18.93;;;10.97;;
2728;SDS011;1372;47.956;7.830;2023-01-19T08:29:04;24.13;;;13.60;;
2728;SDS011;1372;47.956;7.830;2023-01-19T08:31:33;26.13;;;11.57;;
2728;SDS011;1372;47.956;7.830;2023-01-19T08:34:02;28.80;;;13.97;;
2728;SDS011;1372;47.956;7.830;2023-01-19T08:36:31;25.97;;;13.40;;
2728;SDS011;1372;47.956;7.830;2023-01-19T08:39:02;13.83;;;9.90;;
2728;SDS011;1372;47.956;7.830;2023-01-19T08:41:32;12.83;;;9.60;;
2728;SDS011;1372;47.956;7.830;2023-01-19T08:44:05;16.40;;;10.00;;
2728;SDS011;1372;47.956;7.830;2023-01-19T08:46:35;17.20;;;11.03;;
2728;SDS011;1372;47.956;7.830;2023-01-19T08:49:04;13.07;;;9.07;;
2728;SDS011;1372;47.956;7.830;2023-01-19T08:51:33;16.30;;;9.53;;
2728;SDS011;1372;47.956;7.830;2023-01-19T08:54:02;19.57;;;11.53;;
2728;SDS011;1372;47.956;7.830;2023-01-19T08:56:31;14.30;;;9.50;;
2728;SDS011;1372;47.956;7.830;2023-01-19T08:59:00;20.27;;;11.10;;
2728;SDS011;1372;47.956;7.830;2023-01-19T09:01:39;24.40;;;13.50;;
2728;SDS011;1372;47.956;7.830;2023-01-19T09:04:08;33.43;;;14.23;;
2728;SDS011;1372;47.956;7.830;2023-01-19T09:06:37;20.00;;;12.63;;
2728;SDS011;1372;47.956;7.830;2023-01-19T09:09:06;14.93;;;8.93;;
2728;SDS011;1372;47.956;7.830;2023-01-19T09:11:34;9.93;;;6.23;;
2728;SDS011;1372;47.956;7.830;2023-01-19T09:14:03;4.70;;;3.73;;
2728;SDS011;1372;47.956;7.830;2023-01-19T09:16:32;4.23;;;3.27;;
2728;SDS011;1372;47.956;7.830;2023-01-19T09:19:02;6.50;;;3.77;;
2728;SDS011;1372;47.956;7.830;2023-01-19T09:21:34;4.30;;;3.83;;
2728;SDS011;1372;47.956;7.830;2023-01-19T09:24:03;4.20;;;3.60;;
2728;SDS011;1372;47.956;7.830;2023-01-19T09:26:33;5.13;;;4.10;;
2728;SDS011;1372;47.956;7.830;2023-01-19T09:29:02;3.50;;;3.20;;
2728;SDS011;1372;47.956;7.830;2023-01-19T09:31:31;5.13;;;3.67;;
2728;SDS011;1372;47.956;7.830;2023-01-19T09:34:00;4.03;;;3.70;;
2728;SDS011;1372;47.956;7.830;2023-01-19T09:36:30;5.87;;;3.80;;
2728;SDS011;1372;47.956;7.830;2023-01-19T09:38:58;5.23;;;4.10;;
2728;SDS011;1372;47.956;7.830;2023-01-19T09:41:27;4.23;;;3.67;;
2728;SDS011;1372;47.956;7.830;2023-01-19T09:43:57;5.70;;;4.47;;
2728;SDS011;1372;47.956;7.830;2023-01-19T09:46:29;6.93;;;4.97;;
2728;SDS011;1372;47.956;7.830;2023-01-19T09:49:05;4.30;;;3.90;;
2728;SDS011;1372;47.956;7.830;2023-01-19T09:51:46;5.43;;;4.20;;
2728;SDS011;1372;47.956;7.830;2023-01-19T09:54:17;5.10;;;4.60;;
2728;SDS011;1372;47.956;7.830;2023-01-19T09:56:49;4.40;;;3.90;;
2728;SDS011;1372;47.956;7.830;2023-01-19T09:59:20;4.30;;;3.93;;
2728;SDS011;1372;47.956;7.830;2023-01-19T10:02:01;6.70;;;3.80;;
2728;SDS011;1372;47.956;7.830;2023-01-19T10:04:49;3.27;;;2.70;;
2728;SDS011;1372;47.956;7.830;2023-01-19T10:07:35;4.73;;;2.73;;
2728;SDS011;1372;47.956;7.830;2023-01-19T10:10:19;3.23;;;2.90;;
2728;SDS011;1372;47.956;7.830;2023-01-19T10:16:08;3.73;;;2.80;;
2728;SDS011;1372;47.956;7.830;2023-01-19T10:18:50;2.20;;;2.10;;
2728;SDS011;1372;47.956;7.830;2023-01-19T10:21:23;4.23;;;2.50;;
2728;SDS011;1372;47.956;7.830;2023-01-19T10:24:00;2.63;;;2.43;;
2728;SDS011;1372;47.956;7.830;2023-01-19T10:26:35;4.27;;;2.47;;
2728;SDS011;1372;47.956;7.830;2023-01-19T10:29:11;3.87;;;2.57;;
2728;SDS011;1372;47.956;7.830;2023-01-19T10:31:49;3.37;;;2.47;;
2728;SDS011;1372;47.956;7.830;2023-01-19T10:34:20;3.37;;;3.03;;
2728;SDS011;1372;47.956;7.830;2023-01-19T10:36:52;3.83;;;3.40;;
2728;SDS011;1372;47.956;7.830;2023-01-19T10:39:28;6.10;;;3.90;;
2728;SDS011;1372;47.956;7.830;2023-01-19T10:41:58;5.50;;;3.67;;
2728;SDS011;1372;47.956;7.830;2023-01-19T10:44:33;3.30;;;3.00;;
2728;SDS011;1372;47.956;7.830;2023-01-19T10:47:04;3.87;;;3.00;;
2728;SDS011;1372;47.956;7.830;2023-01-19T10:49:42;16.77;;;9.70;;
2728;SDS011;1372;47.956;7.830;2023-01-19T10:52:18;6.20;;;4.87;;
2728;SDS011;1372;47.956;7.830;2023-01-19T10:54:53;3.93;;;3.30;;
2728;SDS011;1372;47.956;7.830;2023-01-19T10:57:24;6.00;;;3.90;;
2728;SDS011;1372;47.956;7.830;2023-01-19T10:59:56;4.63;;;4.10;;
2728;SDS011;1372;47.956;7.830;2023-01-19T11:02:27;7.67;;;6.90;;
2728;SDS011;1372;47.956;7.830;2023-01-19T11:04:57;14.30;;;12.90;;
2728;SDS011;1372;47.956;7.830;2023-01-19T11:07:29;5.43;;;4.43;;
2728;SDS011;1372;47.956;7.830;2023-01-19T11:10:11;11.60;;;10.70;;
2728;SDS011;1372;47.956;7.830;2023-01-19T11:12:55;4.90;;;4.30;;
2728;SDS011;1372;47.956;7.830;2023-01-19T11:15:29;5.07;;;3.23;;
2728;SDS011;1372;47.956;7.830;2023-01-19T11:18:02;6.00;;;3.77;;
2728;SDS011;1372;47.956;7.830;2023-01-19T11:20:34;4.97;;;4.40;;
2728;SDS011;1372;47.956;7.830;2023-01-19T11:23:18;6.70;;;5.03;;
2728;SDS011;1372;47.956;7.830;2023-01-19T11:25:55;7.57;;;4.37;;
2728;SDS011;1372;47.956;7.830;2023-01-19T11:28:27;4.80;;;3.30;;
2728;SDS011;1372;47.956;7.830;2023-01-19T11:31:00;9.13;;;5.10;;
2728;SDS011;1372;47.956;7.830;2023-01-19T11:33:34;10.70;;;8.50;;
2728;SDS011;1372;47.956;7.830;2023-01-19T11:36:08;6.10;;;4.57;;
2728;SDS011;1372;47.956;7.830;2023-01-19T11:38:44;5.60;;;3.60;;
2728;SDS011;1372;47.956;7.830;2023-01-19T11:41:19;4.20;;;3.87;;
2728;SDS011;1372;47.956;7.830;2023-01-19T11:43:50;4.80;;;4.30;;
2728;SDS011;1372;47.956;7.830;2023-01-19T11:46:22;3.67;;;3.37;;
2728;SDS011;1372;47.956;7.830;2023-01-19T11:48:57;3.30;;;2.40;;
2728;SDS011;1372;47.956;7.830;2023-01-19T11:51:33;2.80;;;2.60;;
2728;SDS011;1372;47.956;7.830;2023-01-19T11:54:15;5.50;;;3.47;;
2728;SDS011;1372;47.956;7.830;2023-01-19T11:56:51;8.37;;;5.07;;
2728;SDS011;1372;47.956;7.830;2023-01-19T11:59:22;7.70;;;4.80;;
2728;SDS011;1372;47.956;7.830;2023-01-19T12:01:54;16.40;;;6.30;;
2728;SDS011;1372;47.956;7.830;2023-01-19T12:04:27;22.77;;;8.80;;
2728;SDS011;1372;47.956;7.830;2023-01-19T12:07:01;16.90;;;8.77;;
2728;SDS011;1372;47.956;7.830;2023-01-19T12:09:34;9.27;;;4.43;;
2728;SDS011;1372;47.956;7.830;2023-01-19T12:12:11;39.60;;;17.67;;
2728;SDS011;1372;47.956;7.830;2023-01-19T12:14:53;7.53;;;4.80;;
2728;SDS011;1372;47.956;7.830;2023-01-19T12:17:28;5.77;;;4.13;;
2728;SDS011;1372;47.956;7.830;2023-01-19T12:20:03;6.17;;;4.23;;
2728;SDS011;1372;47.956;7.830;2023-01-19T12:22:41;6.07;;;4.00;;
2728;SDS011;1372;47.956;7.830;2023-01-19T12:25:18;4.37;;;3.97;;
2728;SDS011;1372;47.956;7.830;2023-01-19T12:27:52;4.40;;;4.00;;
2728;SDS011;1372;47.956;7.830;2023-01-19T12:30:27;4.00;;;3.33;;
2728;SDS011;1372;47.956;7.830;2023-01-19T12:33:18;4.30;;;3.37;;
2728;SDS011;1372;47.956;7.830;2023-01-19T12:36:03;3.30;;;2.93;;
2728;SDS011;1372;47.956;7.830;2023-01-19T12:38:44;5.27;;;4.23;;
2728;SDS011;1372;47.956;7.830;2023-01-19T12:41:19;5.03;;;3.53;;
2728;SDS011;1372;47.956;7.830;2023-01-19T12:46:52;5.53;;;3.80;;
2728;SDS011;1372;47.956;7.830;2023-01-19T12:49:30;4.10;;;3.70;;
2728;SDS011;1372;47.956;7.830;2023-01-19T12:52:10;7.07;;;3.50;;
2728;SDS011;1372;47.956;7.830;2023-01-19T12:54:53;4.23;;;3.63;;
2728;SDS011;1372;47.956;7.830;2023-01-19T12:57:29;5.50;;;3.83;;
2728;SDS011;1372;47.956;7.830;2023-01-19T13:00:04;5.43;;;4.33;;
2728;SDS011;1372;47.956;7.830;2023-01-19T13:02:59;5.97;;;3.40;;
2728;SDS011;1372;47.956;7.830;2023-01-19T13:08:26;3.73;;;3.40;;
2728;SDS011;1372;47.956;7.830;2023-01-19T13:11:24;4.50;;;3.60;;
2728;SDS011;1372;47.956;7.830;2023-01-19T13:17:20;3.77;;;3.17;;
2728;SDS011;1372;47.956;7.830;2023-01-19T13:25:58;4.20;;;3.73;;
2728;SDS011;1372;47.956;7.830;2023-01-19T13:28:35;4.20;;;3.80;;
2728;SDS011;1372;47.956;7.830;2023-01-19T13:31:08;5.80;;;4.80;;
2728;SDS011;1372;47.956;7.830;2023-01-19T13:33:43;4.60;;;3.73;;
2728;SDS011;1372;47.956;7.830;2023-01-19T13:36:23;5.20;;;4.67;;
2728;SDS011;1372;47.956;7.830;2023-01-19T13:38:59;6.00;;;4.43;;
2728;SDS011;1372;47.956;7.830;2023-01-19T13:41:33;6.63;;;3.87;;
2728;SDS011;1372;47.956;7.830;2023-01-19T13:44:06;6.90;;;4.70;;
2728;SDS011;1372;47.956;7.830;2023-01-19T13:46:41;4.40;;;3.73;;
2728;SDS011;1372;47.956;7.830;2023-01-19T13:49:14;5.23;;;4.00;;
2728;SDS011;1372;47.956;7.830;2023-01-19T13:52:02;5.03;;;3.83;;
2728;SDS011;1372;47.956;7.830;2023-01-19T13:54:33;4.10;;;3.60;;
2728;SDS011;1372;47.956;7.830;2023-01-19T13:57:01;4.73;;;3.13;;
2728;SDS011;1372;47.956;7.830;2023-01-19T13:59:30;9.60;;;5.23;;
2728;SDS011;1372;47.956;7.830;2023-01-19T14:02:02;8.30;;;5.70;;
2728;SDS011;1372;47.956;7.830;2023-01-19T14:04:40;9.50;;;5.80;;
2728;SDS011;1372;47.956;7.830;2023-01-19T14:07:19;8.13;;;5.23;;
2728;SDS011;1372;47.956;7.830;2023-01-19T14:10:01;4.10;;;3.50;;
2728;SDS011;1372;47.956;7.830;2023-01-19T14:12:31;8.33;;;4.33;;
2728;SDS011;1372;47.956;7.830;2023-01-19T14:15:05;4.23;;;3.07;;
2728;SDS011;1372;47.956;7.830;2023-01-19T14:17:40;8.90;;;6.20;;
2728;SDS011;1372;47.956;7.830;2023-01-19T14:23:02;5.07;;;4.40;;
2728;SDS011;1372;47.956;7.830;2023-01-19T14:25:32;8.70;;;5.63;;
2728;SDS011;1372;47.956;7.830;2023-01-19T14:30:56;4.57;;;3.43;;
2728;SDS011;1372;47.956;7.830;2023-01-19T14:33:39;2.80;;;2.60;;
2728;SDS011;1372;47.956;7.830;2023-01-19T14:39:04;4.87;;;3.47;;
2728;SDS011;1372;47.956;7.830;2023-01-19T14:41:46;5.30;;;3.90;;
2728;SDS011;1372;47.956;7.830;2023-01-19T14:44:19;5.70;;;4.60;;
2728;SDS011;1372;47.956;7.830;2023-01-19T14:46:56;5.67;;;4.23;;
2728;SDS011;1372;47.956;7.830;2023-01-19T14:49:35;4.97;;;4.40;;
2728;SDS011;1372;47.956;7.830;2023-01-19T14:52:19;6.70;;;5.37;;
2728;SDS011;1372;47.956;7.830;2023-01-19T14:54:51;3.13;;;2.83;;
2728;SDS011;1372;47.956;7.830;2023-01-19T14:57:21;5.00;;;4.50;;
2728;SDS011;1372;47.956;7.830;2023-01-19T14:59:52;3.80;;;3.50;;
2728;SDS011;1372;47.956;7.830;2023-01-19T15:02:24;9.20;;;4.83;;
2728;SDS011;1372;47.956;7.830;2023-01-19T15:04:55;5.40;;;4.57;;
2728;SDS011;1372;47.956;7.830;2023-01-19T15:07:25;7.67;;;5.97;;
2728;SDS011;1372;47.956;7.830;2023-01-19T15:09:55;11.10;;;7.17;;
2728;SDS011;1372;47.956;7.830;2023-01-19T15:12:26;8.47;;;6.60;;
2728;SDS011;1372;47.956;7.830;2023-01-19T15:14:56;5.87;;;5.10;;
2728;SDS011;1372;47.956;7.830;2023-01-19T15:17:25;6.60;;;5.60;;
2728;SDS011;1372;47.956;7.830;2023-01-19T15:19:54;6.63;;;5.47;;
2728;SDS011;1372;47.956;7.830;2023-01-19T15:22:25;5.77;;;4.13;;
2728;SDS011;1372;47.956;7.830;2023-01-19T15:24:55;5.07;;;3.40;;
2728;SDS011;1372;47.956;7.830;2023-01-19T15:27:28;3.37;;;2.97;;
2728;SDS011;1372;47.956;7.830;2023-01-19T15:29:57;5.93;;;4.63;;
2728;SDS011;1372;47.956;7.830;2023-01-19T15:32:29;6.67;;;4.20;;
2728;SDS011;1372;47.956;7.830;2023-01-19T15:34:57;3.73;;;3.17;;
2728;SDS011;1372;47.956;7.830;2023-01-19T15:37:30;4.60;;;3.20;;
2728;SDS011;1372;47.956;7.830;2023-01-19T15:39:59;5.10;;;3.43;;
2728;SDS011;1372;47.956;7.830;2023-01-19T15:42:28;3.73;;;3.20;;
2728;SDS011;1372;47.956;7.830;2023-01-19T15:44:56;3.97;;;3.30;;
2728;SDS011;1372;47.956;7.830;2023-01-19T15:47:27;5.57;;;3.60;;
2728;SDS011;1372;47.956;7.830;2023-01-19T15:49:56;4.30;;;3.90;;
2728;SDS011;1372;47.956;7.830;2023-01-19T15:52:24;6.37;;;4.47;;
2728;SDS011;1372;47.956;7.830;2023-01-19T15:54:54;5.80;;;3.63;;
2728;SDS011;1372;47.956;7.830;2023-01-19T15:57:23;3.40;;;3.10;;
2728;SDS011;1372;47.956;7.830;2023-01-19T15:59:52;3.43;;;2.70;;
2728;SDS011;1372;47.956;7.830;2023-01-19T16:02:20;2.80;;;2.30;;
2728;SDS011;1372;47.956;7.830;2023-01-19T16:04:49;5.70;;;3.50;;
2728;SDS011;1372;47.956;7.830;2023-01-19T16:07:21;3.33;;;2.87;;
2728;SDS011;1372;47.956;7.830;2023-01-19T16:09:55;3.70;;;3.30;;
2728;SDS011;1372;47.956;7.830;2023-01-19T16:12:23;4.20;;;3.03;;
2728;SDS011;1372;47.956;7.830;2023-01-19T16:14:52;5.93;;;3.63;;
2728;SDS011;1372;47.956;7.830;2023-01-19T16:17:21;4.00;;;3.20;;
2728;SDS011;1372;47.956;7.830;2023-01-19T16:19:50;4.23;;;3.37;;